Time;durP1;ratioP1;P1;durP2;ratioP2;P2;SDS_P1;SDS_P2;PMS_P1;PMS_P2;Temp;Humidity;BMP_temperature;BMP_pressure;BME280_temperature;BME280_humidity;BME280_pressure;Samples;Min_cycle;Max_cycle;Signal;HPM_P1;HPM_P2
2021/11/21 00:02:13;;;;;;;13.37;9.90;;;;;;;5.97;86.56;95600.13;4975171;28;20698;-82
2021/11/21 00:04:40;;;;;;;15.00;10.33;;;;;;;5.99;86.92;95601.59;4974230;28;20593;-81
2021/11/21 00:07:06;;;;;;;11.23;10.03;;;;;;;6.00;86.79;95589.63;4974732;28;20695;-84
2021/11/21 00:09:33;;;;;;;23.17;9.30;;;;;;;5.94;86.98;95592.78;4974937;28;20200;-81
2021/11/21 00:12:00;;;;;;;10.00;9.00;;;;;;;5.99;86.39;95586.25;4974789;28;20602;-82
2021/11/21 00:14:26;;;;;;;11.70;9.50;;;;;;;5.95;86.67;95584.97;4974322;28;20220;-84
2021/11/21 00:16:57;;;;;;;11.30;10.00;;;;;;;6.02;86.58;95583.41;4974092;28;20228;-81
2021/11/21 00:19:23;;;;;;;11.83;8.83;;;;;;;6.05;86.31;95580.56;4975105;28;20224;-82
2021/11/21 00:21:50;;;;;;;10.70;8.97;;;;;;;6.08;85.33;95575.16;4973403;28;20251;-84
2021/11/21 00:24:16;;;;;;;19.83;8.60;;;;;;;5.90;85.88;95571.84;4975276;28;20293;-84
2021/11/21 00:26:43;;;;;;;14.73;9.33;;;;;;;5.97;85.74;95570.28;4973807;28;20731;-82
2021/11/21 00:29:09;;;;;;;10.50;8.57;;;;;;;6.04;85.46;95558.50;4974068;28;20200;-82
2021/11/21 00:31:35;;;;;;;10.67;8.97;;;;;;;6.09;84.95;95568.31;4974708;28;20197;-84
2021/11/21 00:34:03;;;;;;;9.87;8.23;;;;;;;6.06;84.68;95559.16;4974348;28;20233;-84
2021/11/21 00:36:29;;;;;;;9.33;7.87;;;;;;;6.08;84.29;95554.72;4974160;28;20207;-82
2021/11/21 00:38:56;;;;;;;8.77;7.33;;;;;;;5.99;83.86;95553.03;4974129;28;20200;-85
2021/11/21 00:41:22;;;;;;;9.03;8.00;;;;;;;6.02;84.08;95550.19;4974437;28;20212;-84
2021/11/21 00:43:49;;;;;;;8.50;7.70;;;;;;;6.04;83.56;95540.63;4974476;28;20220;-82
2021/11/21 00:46:15;;;;;;;8.30;7.60;;;;;;;6.05;83.20;95541.44;4973951;28;20718;-83
2021/11/21 00:48:42;;;;;;;8.30;7.50;;;;;;;6.08;83.15;95531.72;4973414;28;20224;-81
2021/11/21 00:51:10;;;;;;;8.80;7.90;;;;;;;6.05;82.75;95532.00;4974858;28;20255;-84
2021/11/21 00:53:39;;;;;;;9.67;7.43;;;;;;;6.06;82.52;95522.59;4974789;28;20238;-84
2021/11/21 00:56:08;;;;;;;13.33;8.00;;;;;;;6.04;82.54;95524.50;4973868;28;20649;-84
2021/11/21 00:58:35;;;;;;;17.27;8.50;;;;;;;5.94;83.12;95524.59;4974366;28;20262;-84
2021/11/21 01:01:04;;;;;;;14.57;7.77;;;;;;;5.84;83.82;95516.97;4974139;28;20208;-84
2021/11/21 01:03:30;;;;;;;20.80;8.00;;;;;;;5.67;83.92;95510.16;4974180;28;20213;-82
2021/11/21 01:05:58;;;;;;;9.33;7.30;;;;;;;5.63;84.78;95510.59;4973877;28;20204;-82
2021/11/21 01:08:27;;;;;;;12.43;8.23;;;;;;;5.55;85.48;95506.22;4974454;28;20216;-83
2021/11/21 01:10:56;;;;;;;11.67;8.13;;;;;;;5.37;86.07;95513.09;4973942;28;20196;-82
2021/11/21 01:13:25;;;;;;;9.37;7.90;;;;;;;5.48;85.99;95503.47;4973596;28;20247;-83
2021/11/21 01:15:53;;;;;;;8.50;7.60;;;;;;;5.44;85.28;95499.59;4973746;28;20564;-82
2021/11/21 01:18:20;;;;;;;9.77;6.77;;;;;;;5.33;85.35;95496.47;4973313;28;20252;-81
2021/11/21 01:20:47;;;;;;;8.10;7.30;;;;;;;5.35;85.08;95497.94;4973904;28;20211;-84
2021/11/21 01:23:15;;;;;;;9.93;7.10;;;;;;;5.29;85.04;95497.69;4973121;28;20308;-85
2021/11/21 01:25:44;;;;;;;18.03;8.90;;;;;;;5.18;84.42;95484.22;4974119;28;20208;-83
2021/11/21 01:28:11;;;;;;;21.57;7.63;;;;;;;5.05;84.74;95491.41;4973716;28;20229;-83
2021/11/21 01:30:38;;;;;;;7.80;7.00;;;;;;;5.10;85.20;95488.44;4974477;28;20211;-84
2021/11/21 01:33:05;;;;;;;7.73;6.20;;;;;;;4.97;84.55;95477.78;4974591;28;20200;-84
2021/11/21 01:35:32;;;;;;;6.30;5.10;;;;;;;4.87;83.40;95475.28;4974096;28;20231;-84
2021/11/21 01:38:00;;;;;;;9.00;5.40;;;;;;;4.74;83.28;95472.28;4974035;28;20231;-82
2021/11/21 01:40:27;;;;;;;5.40;4.73;;;;;;;4.65;83.28;95468.84;4974357;28;20204;-80
2021/11/21 01:42:56;;;;;;;5.67;5.17;;;;;;;4.70;82.83;95476.06;4973748;28;20204;-82
2021/11/21 01:45:23;;;;;;;5.23;4.73;;;;;;;4.78;82.62;95469.31;4973683;28;20204;-81
2021/11/21 01:47:51;;;;;;;5.57;5.07;;;;;;;4.75;82.09;95461.94;4973056;28;20280;-83
2021/11/21 01:50:22;;;;;;;8.07;7.27;;;;;;;4.76;82.08;95455.09;4972981;28;20208;-84
2021/11/21 01:52:48;;;;;;;4.70;4.30;;;;;;;4.55;81.69;95455.34;4974185;28;20282;-83
2021/11/21 01:55:15;;;;;;;4.60;4.20;;;;;;;4.56;81.70;95456.97;4973499;28;20590;-82
2021/11/21 01:57:42;;;;;;;4.33;3.93;;;;;;;4.55;81.07;95439.25;4973554;28;20227;-85
2021/11/21 02:00:13;;;;;;;4.00;3.63;;;;;;;4.56;80.44;95440.88;4973610;28;20196;-83
2021/11/21 02:02:39;;;;;;;4.70;4.23;;;;;;;4.59;79.99;95428.63;4973452;28;20204;-81
2021/11/21 02:05:06;;;;;;;4.50;4.10;;;;;;;4.63;79.65;95432.47;4973115;28;20211;-81
2021/11/21 02:07:33;;;;;;;5.00;4.50;;;;;;;4.69;79.84;95436.22;4973464;28;20215;-81
2021/11/21 02:09:59;;;;;;;5.77;4.87;;;;;;;4.66;79.83;95429.66;4973462;28;20208;-84
2021/11/21 02:12:26;;;;;;;4.63;4.23;;;;;;;4.70;79.48;95437.81;4973851;28;20580;-84
2021/11/21 02:14:53;;;;;;;5.07;4.57;;;;;;;4.78;79.69;95436.16;4973915;28;20228;-85
2021/11/21 02:17:25;;;;;;;4.50;4.10;;;;;;;4.83;79.31;95439.06;4974725;28;20228;-84
2021/11/21 02:19:52;;;;;;;4.80;4.30;;;;;;;4.80;78.42;95433.47;4977981;28;20251;-84
2021/11/21 02:22:20;;;;;;;4.30;3.90;;;;;;;4.76;78.34;95429.59;4976850;28;20232;-84
2021/11/21 02:24:46;;;;;;;4.50;4.10;;;;;;;4.76;78.48;95421.94;4977197;28;20208;-83
2021/11/21 02:27:16;;;;;;;4.50;4.03;;;;;;;4.75;78.45;95422.91;4976532;28;20228;-82
2021/11/21 02:29:43;;;;;;;4.60;4.20;;;;;;;4.73;78.51;95415.38;4977062;28;20215;-85
2021/11/21 02:32:09;;;;;;;4.60;4.20;;;;;;;4.64;79.20;95408.59;4977127;28;20231;-82
2021/11/21 02:34:36;;;;;;;4.43;4.03;;;;;;;4.66;79.52;95411.81;4976352;28;20232;-81
2021/11/21 02:37:08;;;;;;;4.60;4.20;;;;;;;4.67;79.01;95405.75;4976686;28;20648;-82
2021/11/21 02:39:36;;;;;;;4.30;3.90;;;;;;;4.70;79.59;95394.47;4976679;28;20227;-84
2021/11/21 02:42:03;;;;;;;4.50;4.10;;;;;;;4.73;78.46;95392.44;4976508;28;20204;-84
2021/11/21 02:44:29;;;;;;;4.30;3.90;;;;;;;4.78;78.05;95392.81;4977779;28;20204;-81
2021/11/21 02:46:56;;;;;;;3.90;3.60;;;;;;;4.79;77.66;95380.88;4977244;28;20242;-84
2021/11/21 02:49:23;;;;;;;3.77;3.43;;;;;;;4.78;77.16;95374.97;4977301;28;20196;-83
2021/11/21 02:51:49;;;;;;;3.93;3.63;;;;;;;4.81;77.55;95374.63;4977033;28;20201;-85
2021/11/21 02:54:16;;;;;;;4.23;3.87;;;;;;;4.73;77.64;95376.34;4977647;28;20739;-84
2021/11/21 02:56:44;;;;;;;3.67;3.37;;;;;;;4.69;77.65;95367.38;4976735;28;20216;-82
2021/11/21 02:59:10;;;;;;;4.47;4.07;;;;;;;4.52;78.35;95358.78;4976634;28;20200;-84
2021/11/21 03:01:37;;;;;;;3.73;3.40;;;;;;;4.60;78.34;95358.84;4976807;28;20204;-81
2021/11/21 03:04:04;;;;;;;3.80;3.50;;;;;;;4.64;77.99;95359.34;4976967;28;20203;-82
2021/11/21 03:06:35;;;;;;;4.07;3.67;;;;;;;4.65;77.32;95355.84;4976046;28;20196;-83
2021/11/21 03:09:01;;;;;;;4.13;3.80;;;;;;;4.68;77.52;95345.38;4977118;28;20204;-84
2021/11/21 03:11:30;;;;;;;3.87;3.57;;;;;;;4.70;77.49;95344.28;4976124;28;20203;-83
2021/11/21 03:14:00;;;;;;;4.30;3.90;;;;;;;4.67;77.53;95336.91;4977162;28;20706;-83
2021/11/21 03:16:26;;;;;;;4.27;3.87;;;;;;;4.68;77.92;95346.16;4975568;28;20276;-83
2021/11/21 03:18:53;;;;;;;3.87;3.57;;;;;;;4.66;78.28;95342.16;4976089;28;20695;-81
2021/11/21 03:21:20;;;;;;;3.90;3.60;;;;;;;4.70;78.23;95335.81;4976105;28;20228;-83
2021/11/21 03:23:46;;;;;;;4.40;4.00;;;;;;;4.71;78.04;95328.03;4976374;28;20189;-81
2021/11/21 03:26:13;;;;;;;4.40;4.00;;;;;;;4.66;77.96;95325.09;4976151;28;20274;-82
2021/11/21 03:28:40;;;;;;;5.30;3.80;;;;;;;4.67;78.08;95324.16;4975628;28;20599;-83
2021/11/21 03:31:08;;;;;;;4.30;3.90;;;;;;;4.72;78.15;95326.28;4976131;28;20264;-81
2021/11/21 03:33:35;;;;;;;4.07;3.77;;;;;;;4.73;78.10;95312.59;4977116;28;20208;-80
2021/11/21 03:36:02;;;;;;;4.20;3.70;;;;;;;4.73;78.02;95310.84;4975547;28;20248;-84
2021/11/21 03:38:28;;;;;;;3.73;3.43;;;;;;;4.76;78.20;95309.75;4975954;28;20224;-84
2021/11/21 03:40:55;;;;;;;4.10;3.70;;;;;;;4.80;77.77;95306.75;4975994;28;20197;-82
2021/11/21 03:43:21;;;;;;;3.73;3.43;;;;;;;4.82;77.86;95311.69;4976055;28;20275;-82
2021/11/21 03:45:48;;;;;;;4.07;3.70;;;;;;;4.84;77.96;95307.25;4974649;28;20746;-84
2021/11/21 03:48:15;;;;;;;3.80;3.50;;;;;;;4.81;77.76;95313.44;4976291;28;20294;-81
2021/11/21 03:50:42;;;;;;;3.63;3.33;;;;;;;4.77;78.11;95301.16;4975901;28;20204;-84
2021/11/21 03:53:08;;;;;;;6.23;3.80;;;;;;;4.77;77.88;95307.03;4976036;28;20247;-82
2021/11/21 03:55:35;;;;;;;4.50;4.10;;;;;;;4.74;78.27;95298.88;4974923;28;20295;-82
2021/11/21 03:58:01;;;;;;;14.27;4.47;;;;;;;4.68;78.96;95302.00;4975860;28;20234;-82
2021/11/21 04:00:28;;;;;;;6.20;4.40;;;;;;;4.60;79.54;95297.66;4975313;28;20204;-83
2021/11/21 04:02:56;;;;;;;4.13;3.83;;;;;;;4.66;79.42;95299.59;4975681;28;20202;-82
2021/11/21 04:05:25;;;;;;;7.00;4.10;;;;;;;4.70;79.97;95300.13;4975028;28;20583;-84
2021/11/21 04:07:51;;;;;;;4.57;4.17;;;;;;;4.64;80.27;95301.50;4974731;28;20217;-80
2021/11/21 04:10:18;;;;;;;4.33;3.93;;;;;;;4.66;80.64;95291.16;4976064;28;20282;-83
2021/11/21 04:12:45;;;;;;;13.23;4.87;;;;;;;4.63;81.27;95289.69;4975976;28;20675;-82
2021/11/21 04:15:12;;;;;;;6.40;4.43;;;;;;;4.74;80.58;95293.78;4975585;28;20232;-82
2021/11/21 04:17:39;;;;;;;4.50;4.10;;;;;;;4.78;80.70;95295.91;4975531;28;20727;-81
2021/11/21 04:20:07;;;;;;;117.33;8.93;;;;;;;4.74;80.50;95302.25;4975718;28;20212;-82
2021/11/21 04:22:35;;;;;;;17.10;4.33;;;;;;;4.64;81.61;95293.84;4975643;28;20328;-83
2021/11/21 04:25:02;;;;;;;35.80;5.90;;;;;;;4.67;81.79;95287.66;4976433;28;20889;-84
2021/11/21 04:27:28;;;;;;;35.13;5.97;;;;;;;4.71;82.22;95286.44;4975330;28;20271;-83
2021/11/21 04:29:55;;;;;;;19.73;4.70;;;;;;;4.68;82.66;95292.63;4975942;28;20450;-84
2021/11/21 04:32:22;;;;;;;64.00;6.87;;;;;;;4.63;83.35;95286.34;4975694;28;20227;-84
2021/11/21 04:34:49;;;;;;;7.00;5.20;;;;;;;4.69;83.22;95291.66;4975853;28;20324;-82
2021/11/21 04:37:15;;;;;;;60.67;7.47;;;;;;;4.66;83.70;95286.06;4975585;28;20278;-84
2021/11/21 04:39:43;;;;;;;24.40;5.70;;;;;;;4.59;84.10;95282.50;4975417;28;20613;-83
2021/11/21 04:42:10;;;;;;;6.30;4.80;;;;;;;4.56;84.90;95275.97;4975652;28;20208;-82
2021/11/21 04:44:37;;;;;;;6.60;4.83;;;;;;;4.55;84.96;95274.34;4975435;28;20200;-81
2021/11/21 04:47:03;;;;;;;5.67;4.70;;;;;;;4.67;84.72;95272.38;4975070;28;20255;-84
2021/11/21 04:49:30;;;;;;;5.30;4.80;;;;;;;4.73;83.90;95270.03;4975346;28;20204;-83
2021/11/21 04:51:57;;;;;;;5.00;4.50;;;;;;;4.73;84.25;95275.13;4975516;28;20209;-81
2021/11/21 04:54:26;;;;;;;7.13;5.00;;;;;;;4.70;83.85;95272.88;4974794;28;20212;-82
2021/11/21 04:56:54;;;;;;;5.50;4.73;;;;;;;4.59;83.39;95268.03;4974604;28;20220;-81
2021/11/21 04:59:21;;;;;;;18.77;5.23;;;;;;;4.49;83.96;95267.28;4975698;28;20203;-84
2021/11/21 05:01:48;;;;;;;12.80;4.50;;;;;;;4.47;84.51;95269.19;4975973;28;20249;-84
2021/11/21 05:04:15;;;;;;;38.10;5.60;;;;;;;4.42;84.52;95266.28;4977526;28;20246;-83
2021/11/21 05:06:41;;;;;;;8.73;4.00;;;;;;;4.49;83.97;95262.19;4975630;28;20199;-84
2021/11/21 05:09:08;;;;;;;4.17;3.83;;;;;;;4.51;83.49;95256.00;4976474;28;20200;-82
2021/11/21 05:11:35;;;;;;;4.43;3.87;;;;;;;4.35;83.48;95255.88;4975520;28;20196;-83
2021/11/21 05:14:04;;;;;;;7.83;4.00;;;;;;;4.48;82.52;95248.63;4976615;28;20558;-84
2021/11/21 05:16:31;;;;;;;3.60;3.30;;;;;;;4.54;82.26;95251.56;4975044;28;20224;-84
2021/11/21 05:18:57;;;;;;;4.10;3.80;;;;;;;4.57;81.05;95244.41;4975933;28;20208;-84
2021/11/21 05:21:23;;;;;;;4.60;3.90;;;;;;;4.64;80.81;95239.50;4975034;28;20227;-82
2021/11/21 05:23:50;;;;;;;13.23;4.00;;;;;;;4.63;80.02;95243.81;4976163;28;20208;-84
2021/11/21 05:26:16;;;;;;;8.60;3.83;;;;;;;4.59;80.11;95242.53;4975176;28;20204;-84
2021/11/21 05:28:42;;;;;;;5.37;3.60;;;;;;;4.50;80.14;95239.09;4976609;28;20227;-83
2021/11/21 05:31:10;;;;;;;3.77;3.47;;;;;;;4.54;79.62;95243.91;4976373;28;20204;-81
2021/11/21 05:33:37;;;;;;;5.93;3.50;;;;;;;4.49;79.85;95239.25;4975886;28;20826;-82
2021/11/21 05:36:03;;;;;;;4.13;3.77;;;;;;;4.40;80.50;95240.94;4975205;28;20220;-82
2021/11/21 05:38:30;;;;;;;3.90;3.57;;;;;;;4.42;80.06;95243.34;4975270;28;20228;-85
2021/11/21 05:40:56;;;;;;;42.07;5.33;;;;;;;4.32;79.60;95237.53;4975869;28;20215;-83
2021/11/21 05:43:23;;;;;;;3.90;3.60;;;;;;;4.34;79.91;95236.44;4974920;28;20204;-84
2021/11/21 05:45:49;;;;;;;4.30;3.90;;;;;;;4.38;79.69;95234.41;4974518;28;20197;-85
2021/11/21 05:48:18;;;;;;;4.00;3.70;;;;;;;4.42;79.16;95231.41;4974816;28;20224;-81
2021/11/21 05:50:44;;;;;;;4.87;4.10;;;;;;;4.30;78.90;95235.13;4974582;28;20625;-84
2021/11/21 05:53:11;;;;;;;4.53;4.13;;;;;;;4.32;79.38;95243.41;4976631;28;21019;-84
2021/11/21 05:55:37;;;;;;;4.27;3.97;;;;;;;4.33;78.75;95237.38;4978090;28;20249;-82
2021/11/21 05:58:03;;;;;;;4.20;3.80;;;;;;;4.38;78.99;95222.44;4978857;28;20224;-84
2021/11/21 06:00:30;;;;;;;4.50;3.70;;;;;;;4.40;78.50;95224.84;4978330;28;20204;-81
2021/11/21 06:02:57;;;;;;;5.27;3.70;;;;;;;4.38;78.14;95219.09;4978692;28;20618;-82
2021/11/21 06:05:26;;;;;;;4.00;3.67;;;;;;;4.37;77.85;95214.94;4977377;28;20666;-82
2021/11/21 06:07:52;;;;;;;3.60;3.30;;;;;;;4.33;77.52;95211.88;4977853;28;20665;-82
2021/11/21 06:10:20;;;;;;;3.60;3.30;;;;;;;4.25;77.80;95208.47;4978182;28;20208;-82
2021/11/21 06:12:46;;;;;;;3.87;3.43;;;;;;;4.21;78.00;95199.53;4977476;28;20204;-83
2021/11/21 06:15:14;;;;;;;3.80;3.50;;;;;;;4.24;78.21;95197.47;4977751;28;20597;-81
2021/11/21 06:17:42;;;;;;;3.83;3.53;;;;;;;4.17;78.08;95199.03;4977249;28;20235;-83
2021/11/21 06:20:10;;;;;;;3.80;3.50;;;;;;;4.06;78.21;95194.13;4977394;28;20729;-81
2021/11/21 06:22:38;;;;;;;3.37;3.07;;;;;;;3.96;78.07;95198.50;4977021;28;20737;-84
2021/11/21 06:25:05;;;;;;;3.60;3.30;;;;;;;3.92;78.58;95185.28;4977134;28;20199;-81
2021/11/21 06:27:32;;;;;;;15.10;4.87;;;;;;;3.91;78.44;95201.50;4977801;28;20224;-83
2021/11/21 06:29:58;;;;;;;3.63;3.33;;;;;;;3.96;78.84;95203.59;4977161;28;20208;-81
2021/11/21 06:32:25;;;;;;;4.23;3.37;;;;;;;3.95;78.74;95189.28;4976687;28;20204;-82
2021/11/21 06:34:51;;;;;;;4.17;3.80;;;;;;;3.91;79.35;95190.50;4976366;28;20204;-84
2021/11/21 06:37:18;;;;;;;4.03;3.73;;;;;;;3.98;79.13;95189.78;4976188;28;20627;-83
2021/11/21 06:39:45;;;;;;;4.30;3.90;;;;;;;3.99;79.23;95191.38;4977611;28;20208;-84
2021/11/21 06:42:14;;;;;;;3.90;3.60;;;;;;;4.06;79.01;95189.03;4976484;28;20223;-82
2021/11/21 06:44:40;;;;;;;3.90;3.60;;;;;;;4.08;78.98;95193.03;4976193;28;20200;-80
2021/11/21 06:47:07;;;;;;;3.70;3.40;;;;;;;4.11;78.70;95197.06;4976283;28;20224;-81
2021/11/21 06:49:34;;;;;;;3.90;3.60;;;;;;;4.15;78.68;95196.63;4976012;28;20684;-82
2021/11/21 06:52:00;;;;;;;3.67;3.37;;;;;;;4.19;78.62;95186.13;4975557;28;20196;-83
2021/11/21 06:54:27;;;;;;;3.90;3.50;;;;;;;4.19;78.38;95193.78;4976029;28;20200;-81
2021/11/21 06:56:55;;;;;;;4.00;3.70;;;;;;;4.19;78.53;95198.88;4975304;28;20719;-82
2021/11/21 06:59:21;;;;;;;3.67;3.37;;;;;;;4.24;78.44;95182.19;4975121;28;20201;-84
2021/11/21 07:01:47;;;;;;;4.03;3.40;;;;;;;4.23;79.68;95198.44;4975771;28;20608;-81
2021/11/21 07:04:14;;;;;;;4.00;3.70;;;;;;;4.46;81.63;95194.47;4976122;28;20287;-82
2021/11/21 07:06:42;;;;;;;5.73;3.60;;;;;;;4.54;78.54;95186.09;4975624;28;20251;-83
2021/11/21 07:09:10;;;;;;;4.27;3.87;;;;;;;4.50;78.13;95190.66;4975612;28;20235;-82
2021/11/21 07:11:37;;;;;;;4.10;3.80;;;;;;;4.47;77.41;95193.50;4975993;28;20196;-81
2021/11/21 07:14:06;;;;;;;4.00;3.70;;;;;;;4.47;77.57;95190.97;4975648;28;20223;-84
2021/11/21 07:16:33;;;;;;;4.63;4.20;;;;;;;4.44;77.75;95190.44;4975270;28;20227;-84
2021/11/21 07:18:59;;;;;;;11.07;3.57;;;;;;;4.42;77.92;95192.38;4975843;28;20215;-84
2021/11/21 07:21:26;;;;;;;34.50;5.43;;;;;;;4.27;78.41;95187.00;4975233;28;20230;-84
2021/11/21 07:23:53;;;;;;;6.90;4.37;;;;;;;4.27;78.66;95191.28;4975181;28;20604;-84
2021/11/21 07:26:19;;;;;;;20.20;4.90;;;;;;;4.30;78.71;95196.88;4975687;28;20248;-82
2021/11/21 07:28:46;;;;;;;6.10;3.77;;;;;;;4.36;78.69;95192.97;4974750;28;20227;-82
2021/11/21 07:31:14;;;;;;;6.80;4.30;;;;;;;4.27;78.95;95191.28;4975834;28;20200;-82
2021/11/21 07:33:40;;;;;;;8.83;3.80;;;;;;;4.32;79.09;95187.34;4976146;28;20196;-82
2021/11/21 07:36:07;;;;;;;4.50;4.10;;;;;;;4.36;78.34;95192.97;4974650;28;20228;-84
2021/11/21 07:38:34;;;;;;;4.00;3.70;;;;;;;4.43;78.24;95186.31;4972740;28;20231;-82
2021/11/21 07:41:01;;;;;;;4.57;4.17;;;;;;;4.51;78.13;95184.63;4973674;28;20228;-82
2021/11/21 07:43:27;;;;;;;4.50;4.10;;;;;;;4.43;78.09;95187.09;4969173;28;20247;-84
2021/11/21 07:45:54;;;;;;;4.87;4.47;;;;;;;4.49;78.02;95185.72;4972812;28;20200;-82
2021/11/21 07:48:23;;;;;;;6.63;4.70;;;;;;;4.58;77.47;95187.38;4975219;28;20226;-83
2021/11/21 07:50:53;;;;;;;4.60;4.20;;;;;;;4.66;77.65;95178.97;4974569;28;20201;-84
2021/11/21 07:53:19;;;;;;;4.30;3.90;;;;;;;4.68;77.44;95188.06;4974731;28;20530;-84
2021/11/21 07:55:47;;;;;;;13.97;4.60;;;;;;;4.47;77.50;95178.22;4973299;28;20228;-81
2021/11/21 07:58:13;;;;;;;4.67;4.00;;;;;;;4.42;78.32;95180.44;4973150;28;20249;-84
2021/11/21 08:00:40;;;;;;;5.83;5.20;;;;;;;4.57;78.11;95182.44;4973851;28;20690;-81
2021/11/21 08:03:06;;;;;;;8.90;4.53;;;;;;;4.67;77.59;95178.81;4974155;28;20652;-82
2021/11/21 08:05:34;;;;;;;4.80;4.27;;;;;;;4.76;76.29;95172.03;4973804;28;20204;-83
2021/11/21 08:08:00;;;;;;;4.37;3.97;;;;;;;4.77;75.43;95176.19;4968121;28;20224;-83
2021/11/21 08:10:27;;;;;;;4.07;3.67;;;;;;;4.83;76.32;95171.25;4972903;28;20695;-84
2021/11/21 08:12:53;;;;;;;4.53;4.07;;;;;;;5.05;76.26;95172.50;4972446;28;20204;-82
2021/11/21 08:15:20;;;;;;;5.30;4.33;;;;;;;5.38;74.79;95168.34;4972140;28;20208;-83
2021/11/21 08:17:46;;;;;;;4.47;4.07;;;;;;;5.37;73.77;95171.84;4972720;28;20426;-83
2021/11/21 08:20:13;;;;;;;4.43;4.03;;;;;;;5.28;74.28;95164.28;4972747;28;20313;-82
2021/11/21 08:22:41;;;;;;;5.03;4.30;;;;;;;5.34;74.63;95167.03;4972436;28;20224;-83
2021/11/21 08:25:09;;;;;;;4.33;3.93;;;;;;;5.64;73.96;95169.97;4971975;28;20196;-82
2021/11/21 08:27:36;;;;;;;4.60;4.20;;;;;;;5.95;72.86;95170.25;4972229;28;20228;-83
2021/11/21 08:30:04;;;;;;;4.33;3.93;;;;;;;6.16;71.79;95163.69;4973212;28;21013;-84
2021/11/21 08:32:30;;;;;;;3.77;3.47;;;;;;;6.35;71.41;95162.56;4972961;28;20572;-84
2021/11/21 08:34:57;;;;;;;3.90;3.60;;;;;;;6.56;70.61;95167.19;4971976;28;20207;-81
2021/11/21 08:37:23;;;;;;;3.87;3.57;;;;;;;6.81;70.24;95163.63;4978311;28;20587;-80
2021/11/21 08:39:51;;;;;;;3.47;3.17;;;;;;;6.82;68.39;95156.75;4975721;28;20205;-83
2021/11/21 08:42:18;;;;;;;3.70;3.40;;;;;;;6.91;69.43;95153.22;4972069;28;20196;-81
2021/11/21 08:44:44;;;;;;;3.80;3.43;;;;;;;7.08;68.57;95157.31;4971433;28;20208;-84
2021/11/21 08:47:11;;;;;;;3.70;3.40;;;;;;;7.23;67.34;95157.44;4972242;28;20220;-82
2021/11/21 08:49:38;;;;;;;3.63;3.23;;;;;;;7.41;67.03;95162.31;4970873;28;20292;-82
2021/11/21 08:52:06;;;;;;;3.60;3.30;;;;;;;7.55;67.73;95152.16;4971589;28;20540;-82
2021/11/21 08:54:32;;;;;;;3.60;3.30;;;;;;;7.92;67.55;95151.44;4970836;28;20197;-82
2021/11/21 08:57:00;;;;;;;3.80;3.50;;;;;;;8.04;64.85;95151.06;4972622;28;20627;-82
2021/11/21 08:59:26;;;;;;;3.70;3.40;;;;;;;8.14;64.94;95149.84;4972550;28;20203;-83
2021/11/21 09:01:53;;;;;;;3.60;3.30;;;;;;;8.19;64.22;95151.91;4973656;28;20308;-83
2021/11/21 09:04:19;;;;;;;5.00;3.30;;;;;;;8.30;64.81;95144.59;4967355;28;20204;-83
2021/11/21 09:06:47;;;;;;;3.97;3.67;;;;;;;8.45;63.54;95139.53;4971851;28;20203;-80
2021/11/21 09:09:14;;;;;;;3.83;3.47;;;;;;;8.62;63.54;95140.97;4971981;28;20200;-81
2021/11/21 09:11:42;;;;;;;4.00;3.70;;;;;;;8.83;62.85;95140.28;4971909;28;20251;-83
2021/11/21 09:14:10;;;;;;;4.03;3.63;;;;;;;8.87;61.82;95140.72;4971848;28;20208;-83
2021/11/21 09:16:38;;;;;;;4.33;3.93;;;;;;;9.09;61.61;95141.59;4971151;28;20219;-82
2021/11/21 09:19:05;;;;;;;4.37;4.00;;;;;;;9.10;60.82;95138.06;4972272;28;20211;-83
2021/11/21 09:21:31;;;;;;;4.07;3.70;;;;;;;9.29;61.53;95134.94;4972265;28;20287;-82
2021/11/21 09:23:58;;;;;;;4.43;4.03;;;;;;;9.47;60.60;95134.56;4972525;28;20235;-82
2021/11/21 09:26:26;;;;;;;4.13;3.73;;;;;;;9.59;59.84;95126.22;4971017;28;20200;-82
2021/11/21 09:28:52;;;;;;;4.70;3.80;;;;;;;9.67;59.49;95123.50;4976544;28;20286;-83
2021/11/21 09:31:20;;;;;;;4.23;3.90;;;;;;;9.75;59.88;95117.47;4976225;28;20211;-81
2021/11/21 09:33:46;;;;;;;4.23;3.83;;;;;;;9.81;59.69;95126.25;4976688;28;20200;-80
2021/11/21 09:36:13;;;;;;;4.30;4.00;;;;;;;9.76;59.10;95121.63;4976628;28;20224;-83
2021/11/21 09:38:39;;;;;;;4.40;3.97;;;;;;;9.80;60.62;95114.38;4976453;28;20275;-82
2021/11/21 09:41:06;;;;;;;4.20;3.90;;;;;;;9.86;60.58;95122.13;4977491;28;20672;-80
2021/11/21 09:43:32;;;;;;;8.57;7.77;;;;;;;9.88;59.11;95120.16;4976751;28;20199;-82
2021/11/21 09:45:59;;;;;;;20.53;17.80;;;;;;;10.00;59.89;95115.34;4976762;28;20200;-80
2021/11/21 09:48:32;;;;;;;5.00;4.57;;;;;;;9.85;59.90;95117.97;4976611;28;20227;-83
2021/11/21 09:51:00;;;;;;;5.03;4.37;;;;;;;10.00;59.73;95105.06;4975734;28;20299;-80
2021/11/21 09:53:26;;;;;;;4.67;4.27;;;;;;;10.18;59.36;95104.63;4976532;28;20608;-82
2021/11/21 09:55:53;;;;;;;3.97;3.67;;;;;;;10.38;58.85;95108.97;4976458;28;20231;-79
2021/11/21 09:58:19;;;;;;;3.80;3.50;;;;;;;10.49;59.67;95106.84;4976238;28;20238;-83
2021/11/21 10:00:46;;;;;;;4.47;4.10;;;;;;;10.67;59.76;95094.28;4976547;28;20196;-83
2021/11/21 10:03:14;;;;;;;4.00;3.70;;;;;;;10.84;58.35;95102.50;4977202;28;20207;-82
2021/11/21 10:05:44;;;;;;;4.40;4.00;;;;;;;10.89;57.97;95100.19;4976012;28;20196;-82
2021/11/21 10:08:13;;;;;;;4.27;3.97;;;;;;;10.94;57.96;95101.19;4977405;28;20251;-83
2021/11/21 10:10:41;;;;;;;4.43;4.03;;;;;;;10.95;56.92;95094.28;4976790;28;20689;-84
2021/11/21 10:13:31;;;;;;;4.43;4.03;;;;;;;10.87;57.23;95087.47;4976390;28;20204;-83
2021/11/21 10:15:59;;;;;;;4.67;4.20;;;;;;;10.71;57.88;95083.44;4960431;28;20204;-83
2021/11/21 10:18:26;;;;;;;4.37;3.93;;;;;;;10.71;58.28;95085.22;4975346;28;20700;-79
2021/11/21 10:20:53;;;;;;;4.50;4.10;;;;;;;10.78;57.53;95074.94;4975940;28;20204;-81
2021/11/21 10:23:21;;;;;;;6.10;5.50;;;;;;;10.83;57.88;95085.47;4975599;28;20231;-80
2021/11/21 10:25:51;;;;;;;19.90;17.10;;;;;;;10.86;58.54;95080.75;4975690;28;20200;-81
2021/11/21 10:28:21;;;;;;;6.20;5.60;;;;;;;10.91;57.48;95075.81;4975426;28;20223;-81
2021/11/21 10:31:07;;;;;;;4.83;4.43;;;;;;;11.04;56.93;95080.22;4975940;28;20204;-81
2021/11/21 10:33:36;;;;;;;4.53;4.13;;;;;;;11.03;57.96;95071.72;4971530;28;20201;-82
2021/11/21 10:36:08;;;;;;;5.20;4.70;;;;;;;10.97;57.97;95072.47;4971245;28;20655;-81
2021/11/21 10:38:38;;;;;;;4.67;4.27;;;;;;;11.04;58.20;95067.34;4974929;28;20296;-82
2021/11/21 10:41:07;;;;;;;4.90;4.50;;;;;;;11.16;57.57;95063.22;4975222;28;20299;-83
2021/11/21 10:43:41;;;;;;;5.20;4.70;;;;;;;11.29;56.95;95059.94;4975630;28;20263;-84
2021/11/21 10:46:29;;;;;;;5.10;4.70;;;;;;;11.22;56.26;95057.31;4974440;28;20750;-83
2021/11/21 10:49:13;;;;;;;8.77;5.03;;;;;;;11.27;56.49;95054.97;4975237;28;20223;-83
2021/11/21 10:51:41;;;;;;;5.53;4.77;;;;;;;11.17;56.76;95061.44;4975652;28;20227;-83
2021/11/21 10:54:18;;;;;;;4.87;4.40;;;;;;;11.25;56.21;95049.19;4974785;28;20208;-80
2021/11/21 10:56:46;;;;;;;4.80;4.40;;;;;;;11.35;56.73;95041.88;4974649;28;20246;-81
2021/11/21 10:59:15;;;;;;;5.30;4.80;;;;;;;11.35;56.94;95035.97;4974968;28;20201;-83
2021/11/21 11:01:41;;;;;;;5.00;4.50;;;;;;;11.38;57.08;95033.78;4975102;28;20259;-82
2021/11/21 11:04:14;;;;;;;5.07;4.57;;;;;;;11.41;56.14;95030.81;4975539;28;20199;-83
2021/11/21 11:06:42;;;;;;;4.47;4.17;;;;;;;11.44;56.16;95024.47;4974461;28;20188;-84
2021/11/21 11:09:20;;;;;;;5.20;4.73;;;;;;;11.47;56.85;95023.28;4974522;28;20204;-83
2021/11/21 11:11:48;;;;;;;4.93;4.53;;;;;;;11.54;57.12;95024.09;4975224;28;20672;-83
2021/11/21 11:14:18;;;;;;;4.80;4.40;;;;;;;11.69;56.85;95022.94;4974711;28;20917;-83
2021/11/21 11:16:47;;;;;;;4.93;4.50;;;;;;;11.77;56.80;95019.38;4974344;28;20220;-84
2021/11/21 11:19:15;;;;;;;6.07;5.03;;;;;;;11.83;57.06;95015.22;4975577;28;20208;-83
2021/11/21 11:21:44;;;;;;;5.33;4.83;;;;;;;11.77;56.87;95017.59;4974594;28;20634;-83
2021/11/21 11:24:11;;;;;;;5.13;4.63;;;;;;;11.90;57.16;95019.41;4984957;28;20226;-82
2021/11/21 11:26:37;;;;;;;5.50;5.00;;;;;;;11.72;56.94;95019.16;4975067;28;20722;-81
2021/11/21 11:29:12;;;;;;;6.73;5.40;;;;;;;11.78;57.40;95013.22;4976028;28;20203;-82
2021/11/21 11:31:40;;;;;;;6.13;5.57;;;;;;;11.70;57.29;95021.16;4975130;28;20218;-83
2021/11/21 11:34:07;;;;;;;6.13;5.63;;;;;;;11.74;58.00;95020.53;4974107;28;20200;-81
2021/11/21 11:36:34;;;;;;;6.70;6.00;;;;;;;11.87;57.69;95011.25;4974323;28;20204;-81
2021/11/21 11:39:05;;;;;;;6.20;5.50;;;;;;;11.91;57.61;95012.47;4974928;28;20200;-81
2021/11/21 11:41:33;;;;;;;7.00;5.90;;;;;;;11.88;57.26;95013.66;4974389;28;20592;-80